Time;durP1;ratioP1;P1;durP2;ratioP2;P2;SDS_P1;SDS_P2;PMS_P1;PMS_P2;Temp;Humidity;BMP_temperature;BMP_pressure;BME280_temperature;BME280_humidity;BME280_pressure;Samples;Min_cycle;Max_cycle;Signal;HPM_P1;HPM_P2
2023/06/30 07:12:29;;;;;;;;;;;17.90;99.90;;;;;;4864269;29;19980;-92
2023/06/30 07:15:33;;;;;;;;;;;17.80;99.90;;;;;;4844176;29;20353;-92
2023/06/30 07:28:33;;;;;;;;;;;17.90;99.90;;;;;;4909577;23;19928;-91
2023/06/30 07:34:19;;;;;;;;;;;18.10;99.90;;;;;;4847854;29;19924;-92
2023/06/30 07:48:34;;;;;;;;;;;17.80;99.90;;;;;;5238571;24;19928;-91
2023/06/30 08:07:36;;;;;;;;;;;18.90;99.90;;;;;;1147124;23;21279;-91
2023/06/30 08:10:48;;;;;;;;;;;;;;;;;;;;;
2023/06/30 08:14:06;;;;;;;;;;;19.10;99.90;;;;;;4698160;30;19927;-92
2023/06/30 08:19:41;;;;;;;;;;;18.80;99.90;;;;;;4731785;24;19968;-91
2023/06/30 08:22:21;;;;;;;;;;;18.60;99.90;;;;;;4844825;29;19924;-90
2023/06/30 08:28:54;;;;;;;;;;;;;;;;;;;;;
2023/06/30 08:31:44;;;;;;;;;;;18.40;99.90;;;;;;4840565;29;19967;-91
2023/06/30 08:34:15;;;;;;;;;;;18.80;99.90;;;;;;4838240;29;20198;-93
2023/06/30 08:37:13;;;;;;;;;;;19.10;99.90;;;;;;4834290;29;19941;-90
2023/06/30 08:40:15;;;;;;;;;;;19.40;99.90;;;;;;4837890;29;20249;-91
2023/06/30 08:43:02;;;;;;;;;;;19.60;99.90;;;;;;4837443;29;19923;-91
2023/06/30 08:45:58;;;;;;;;;;;19.70;99.90;;;;;;4825887;29;19972;-91
2023/06/30 08:48:53;;;;;;;;;;;;;;;;;;;;;
2023/06/30 08:51:33;;;;;;;;;;;20.00;99.90;;;;;;4838354;29;20295;-91
2023/06/30 08:54:02;;;;;;;;;;;20.20;99.90;;;;;;4837749;29;19923;-90
2023/06/30 08:56:46;;;;;;;;;;;;;;;;;;;;;
2023/06/30 08:59:31;;;;;;;;;;;20.60;99.90;;;;;;4845328;29;19919;-92
2023/06/30 09:01:59;;;;;;;;;;;20.50;99.90;;;;;;4821519;29;19924;-90
2023/06/30 09:04:41;;;;;;;;;;;;;;;;;;;;;
2023/06/30 09:07:58;;;;;;;;;;;20.40;99.90;;;;;;4862191;29;19932;-92
2023/06/30 09:10:42;;;;;;;;;;;20.30;99.90;;;;;;4842264;29;19930;-91
2023/06/30 09:13:08;;;;;;;;;;;19.90;99.90;;;;;;4825714;29;20016;-90
2023/06/30 09:15:46;;;;;;;;;;;19.70;99.90;;;;;;4824950;29;19924;-91
2023/06/30 09:18:25;;;;;;;;;;;19.40;99.90;;;;;;4837311;29;19924;-91
2023/06/30 09:20:52;;;;;;;;;;;19.50;99.90;;;;;;4825023;29;19928;-91
2023/06/30 09:23:24;;;;;;;;;;;19.70;99.90;;;;;;4825366;29;19936;-91
2023/06/30 09:25:55;;;;;;;;;;;20.00;99.90;;;;;;4825514;29;19924;-91
2023/06/30 09:28:33;;;;;;;;;;;20.20;99.90;;;;;;4836933;29;19953;-92
2023/06/30 09:31:01;;;;;;;;;;;20.30;99.90;;;;;;4828497;29;20345;-91
2023/06/30 09:33:40;;;;;;;;;;;20.20;99.90;;;;;;4831514;29;19924;-90
2023/06/30 09:36:24;;;;;;;;;;;20.30;99.90;;;;;;4839925;29;19928;-90
2023/06/30 09:39:05;;;;;;;;;;;20.20;99.90;;;;;;4828527;29;19931;-91
2023/06/30 09:41:45;;;;;;;;;;;19.90;99.90;;;;;;4859936;29;19949;-92
2023/06/30 09:47:34;;;;;;;;;;;20.00;99.90;;;;;;4845299;29;19931;-91
2023/06/30 09:53:22;;;;;;;;;;;20.40;99.90;;;;;;4805187;29;19972;-91
2023/06/30 09:55:51;;;;;;;;;;;20.20;99.90;;;;;;4846632;29;19919;-91
2023/06/30 09:58:25;;;;;;;;;;;20.30;99.90;;;;;;4836593;29;19984;-91
2023/06/30 10:01:12;;;;;;;;;;;20.40;99.90;;;;;;4831728;29;19919;-92
2023/06/30 10:04:28;;;;;;;;;;;20.70;99.90;;;;;;4832965;29;19938;-92
2023/06/30 10:07:28;;;;;;;;;;;21.10;99.90;;;;;;4765584;29;19954;-92
2023/06/30 10:10:04;;;;;;;;;;;21.30;99.90;;;;;;4722851;29;20136;-91
2023/06/30 10:12:49;;;;;;;;;;;21.00;99.90;;;;;;4793059;29;19967;-90
2023/06/30 10:15:15;;;;;;;;;;;20.70;99.90;;;;;;4805706;29;19952;-92
2023/06/30 10:17:54;;;;;;;;;;;20.70;99.90;;;;;;4827618;29;19924;-92
2023/06/30 10:23:41;;;;;;;;;;;21.10;99.90;;;;;;4817750;29;19950;-92
2023/06/30 10:26:51;;;;;;;;;;;;;;;;;;;;;
2023/06/30 10:29:28;;;;;;;;;;;20.90;99.90;;;;;;4845760;29;19928;-91
2023/06/30 10:32:09;;;;;;;;;;;21.10;99.90;;;;;;4842052;29;20794;-92
2023/06/30 10:34:56;;;;;;;;;;;21.40;99.90;;;;;;4837802;29;20385;-91
2023/06/30 10:37:30;;;;;;;;;;;21.40;99.90;;;;;;4827513;29;20274;-92
2023/06/30 10:39:56;;;;;;;;;;;21.30;99.90;;;;;;4826838;29;19932;-91
2023/06/30 10:42:39;;;;;;;;;;;21.20;99.90;;;;;;4843581;29;19955;-93
2023/06/30 10:45:06;;;;;;;;;;;21.40;99.90;;;;;;4818639;29;19928;-92
2023/06/30 10:47:37;;;;;;;;;;;21.60;99.90;;;;;;4828659;29;19931;-92
2023/06/30 10:50:13;;;;;;;;;;;21.70;99.90;;;;;;4828024;29;19930;-92
2023/06/30 10:52:47;;;;;;;;;;;21.90;99.90;;;;;;4839455;29;20014;-92
2023/06/30 10:55:34;;;;;;;;;;;22.20;99.90;;;;;;4828029;29;19972;-92
2023/06/30 10:58:02;;;;;;;;;;;22.40;99.90;;;;;;4842903;29;19928;-92
2023/06/30 11:00:37;;;;;;;;;;;22.60;99.90;;;;;;4827761;29;20058;-92
2023/06/30 11:03:07;;;;;;;;;;;22.60;99.90;;;;;;4837024;29;19977;-90
2023/06/30 11:05:36;;;;;;;;;;;22.80;99.90;;;;;;4829181;29;19980;-91
2023/06/30 11:08:21;;;;;;;;;;;22.80;99.90;;;;;;4837248;29;19931;-91
2023/06/30 11:10:47;;;;;;;;;;;23.10;99.90;;;;;;4815116;29;19924;-92
2023/06/30 11:13:13;;;;;;;;;;;23.30;99.90;;;;;;4827880;29;19924;-91
2023/06/30 11:15:41;;;;;;;;;;;23.50;99.90;;;;;;4837654;29;19935;-91
2023/06/30 11:18:13;;;;;;;;;;;23.60;99.90;;;;;;4839743;29;19924;-92
2023/06/30 11:21:02;;;;;;;;;;;23.60;99.70;;;;;;4844768;29;20347;-92
2023/06/30 11:23:33;;;;;;;;;;;23.70;98.90;;;;;;4840919;29;19932;-91
2023/06/30 11:26:11;;;;;;;;;;;23.80;94.80;;;;;;4826271;29;19920;-91
2023/06/30 11:28:37;;;;;;;;;;;23.80;97.60;;;;;;4829757;29;19956;-91
2023/06/30 11:31:03;;;;;;;;;;;23.90;99.90;;;;;;4826882;29;19924;-91
2023/06/30 11:33:29;;;;;;;;;;;23.80;98.30;;;;;;4842291;29;20296;-91
2023/06/30 11:35:59;;;;;;;;;;;23.50;95.80;;;;;;4827121;29;20361;-91
2023/06/30 11:38:25;;;;;;;;;;;23.30;95.90;;;;;;4827105;29;19973;-91
2023/06/30 11:40:51;;;;;;;;;;;23.10;96.70;;;;;;4826320;29;19924;-91
2023/06/30 11:43:21;;;;;;;;;;;23.10;99.40;;;;;;4826208;29;20067;-90
2023/06/30 11:45:55;;;;;;;;;;;23.10;99.90;;;;;;4840732;29;20003;-89
2023/06/30 11:48:20;;;;;;;;;;;22.90;99.90;;;;;;4825955;29;19924;-90
2023/06/30 11:50:46;;;;;;;;;;;22.80;99.90;;;;;;4827628;29;19927;-90
2023/06/30 11:53:12;;;;;;;;;;;22.80;97.60;;;;;;4835511;29;19924;-89
2023/06/30 11:55:44;;;;;;;;;;;22.80;97.60;;;;;;4825487;29;19928;-90
2023/06/30 11:58:10;;;;;;;;;;;22.90;96.10;;;;;;4826866;29;19973;-90
2023/06/30 12:00:35;;;;;;;;;;;23.00;97.90;;;;;;4828926;29;19931;-90
2023/06/30 12:03:01;;;;;;;;;;;22.80;98.40;;;;;;4843108;29;19928;-88
2023/06/30 12:05:27;;;;;;;;;;;22.80;96.40;;;;;;4838753;29;19924;-90
2023/06/30 12:07:55;;;;;;;;;;;22.80;99.50;;;;;;4826249;29;19931;-91
2023/06/30 12:10:22;;;;;;;;;;;22.90;98.90;;;;;;4838845;29;20332;-90
2023/06/30 12:12:56;;;;;;;;;;;23.10;99.50;;;;;;4834223;29;19924;-90
2023/06/30 12:15:34;;;;;;;;;;;23.20;97.00;;;;;;4830384;29;20252;-90
2023/06/30 12:18:01;;;;;;;;;;;23.30;99.70;;;;;;4858861;29;19920;-90
2023/06/30 12:20:38;;;;;;;;;;;23.30;98.30;;;;;;4841304;29;20376;-89
2023/06/30 12:23:04;;;;;;;;;;;23.40;96.50;;;;;;4846791;29;20436;-90
2023/06/30 12:25:34;;;;;;;;;;;23.40;94.50;;;;;;4835459;29;20031;-90
2023/06/30 12:28:16;;;;;;;;;;;23.60;96.20;;;;;;4829405;29;20019;-90
2023/06/30 12:30:43;;;;;;;;;;;23.40;97.50;;;;;;4842663;29;19924;-90
2023/06/30 12:33:09;;;;;;;;;;;23.00;94.70;;;;;;4828138;29;19920;-91
2023/06/30 12:35:37;;;;;;;;;;;22.80;95.10;;;;;;4840667;29;19928;-90
2023/06/30 12:38:14;;;;;;;;;;;22.70;96.80;;;;;;4826485;29;19920;-91
2023/06/30 12:40:40;;;;;;;;;;;22.70;92.60;;;;;;4835968;29;19927;-91
2023/06/30 12:43:08;;;;;;;;;;;22.50;92.70;;;;;;4827082;29;19946;-90
2023/06/30 12:45:34;;;;;;;;;;;22.30;93.80;;;;;;4824602;29;19928;-91
2023/06/30 12:48:00;;;;;;;;;;;22.40;95.50;;;;;;4826113;29;20392;-92
2023/06/30 12:50:25;;;;;;;;;;;22.60;97.70;;;;;;4837603;29;19934;-91
2023/06/30 12:52:59;;;;;;;;;;;22.90;98.00;;;;;;4825940;29;19928;-91
2023/06/30 12:55:26;;;;;;;;;;;23.10;94.80;;;;;;4824196;29;19928;-90
2023/06/30 12:57:52;;;;;;;;;;;23.20;95.30;;;;;;4826191;29;19932;-91
2023/06/30 13:00:20;;;;;;;;;;;23.20;95.90;;;;;;4825227;29;19924;-90
2023/06/30 13:02:59;;;;;;;;;;;23.10;94.30;;;;;;4825449;29;20270;-91
2023/06/30 13:05:24;;;;;;;;;;;23.00;96.60;;;;;;4829242;29;19927;-91
2023/06/30 13:07:53;;;;;;;;;;;22.90;94.80;;;;;;4845892;29;19930;-90
2023/06/30 13:10:20;;;;;;;;;;;23.10;95.70;;;;;;4843521;29;19924;-91
2023/06/30 13:12:49;;;;;;;;;;;23.20;94.90;;;;;;4829091;29;20375;-89
2023/06/30 13:15:20;;;;;;;;;;;23.30;96.80;;;;;;4838761;29;20342;-90
2023/06/30 13:17:50;;;;;;;;;;;23.10;93.10;;;;;;4838197;29;20266;-90
2023/06/30 13:20:15;;;;;;;;;;;23.00;96.10;;;;;;4845554;29;19932;-90
2023/06/30 13:22:41;;;;;;;;;;;23.10;96.20;;;;;;4836196;29;19955;-89
2023/06/30 13:25:07;;;;;;;;;;;23.20;91.80;;;;;;4829457;29;19920;-89
2023/06/30 13:27:42;;;;;;;;;;;23.30;93.90;;;;;;4828599;29;19924;-90
2023/06/30 13:30:08;;;;;;;;;;;23.40;93.00;;;;;;4829802;29;19924;-90
2023/06/30 13:32:33;;;;;;;;;;;23.50;93.50;;;;;;4834468;29;19928;-90
2023/06/30 13:34:59;;;;;;;;;;;23.60;93.00;;;;;;4829639;29;20004;-90
2023/06/30 13:37:26;;;;;;;;;;;23.50;92.10;;;;;;4834159;29;19959;-89
2023/06/30 13:39:51;;;;;;;;;;;23.40;90.50;;;;;;4828174;29;20209;-90
2023/06/30 13:42:17;;;;;;;;;;;23.30;91.90;;;;;;4829976;29;19924;-90
2023/06/30 13:44:43;;;;;;;;;;;23.30;92.90;;;;;;4829519;29;19935;-90
2023/06/30 13:47:09;;;;;;;;;;;23.30;92.30;;;;;;4836774;29;19924;-89
2023/06/30 13:49:43;;;;;;;;;;;23.30;94.00;;;;;;4828512;29;19935;-90
2023/06/30 13:52:12;;;;;;;;;;;23.20;92.20;;;;;;4838291;29;20026;-91
2023/06/30 13:54:40;;;;;;;;;;;23.20;93.80;;;;;;4827317;29;20018;-90
2023/06/30 13:57:07;;;;;;;;;;;23.20;93.70;;;;;;4827726;29;19928;-90
2023/06/30 13:59:33;;;;;;;;;;;23.10;93.40;;;;;;4828663;29;19996;-90
2023/06/30 14:01:58;;;;;;;;;;;23.10;92.20;;;;;;4827562;29;20361;-90
2023/06/30 14:04:36;;;;;;;;;;;23.00;92.80;;;;;;4842730;29;19924;-91
2023/06/30 14:07:04;;;;;;;;;;;22.90;91.00;;;;;;4831746;29;19928;-90
2023/06/30 14:09:33;;;;;;;;;;;22.80;93.20;;;;;;4834006;29;19928;-90
2023/06/30 14:11:58;;;;;;;;;;;22.80;92.70;;;;;;4844758;29;19932;-90
2023/06/30 14:14:24;;;;;;;;;;;22.80;94.40;;;;;;4828484;29;20361;-90
2023/06/30 14:16:49;;;;;;;;;;;22.70;93.10;;;;;;4839107;29;19924;-90
2023/06/30 14:19:15;;;;;;;;;;;22.70;92.90;;;;;;4828064;29;19984;-90
2023/06/30 14:21:42;;;;;;;;;;;22.70;93.60;;;;;;4828758;29;20050;-90
2023/06/30 14:24:08;;;;;;;;;;;22.90;94.80;;;;;;4843242;29;19924;-90
2023/06/30 14:26:35;;;;;;;;;;;23.00;94.20;;;;;;4828469;29;20023;-90
2023/06/30 14:29:00;;;;;;;;;;;23.30;93.80;;;;;;4827885;29;19936;-90
2023/06/30 14:31:29;;;;;;;;;;;23.40;93.70;;;;;;4826610;29;19933;-90
2023/06/30 14:33:55;;;;;;;;;;;23.50;93.20;;;;;;4834000;29;19923;-91
2023/06/30 14:36:21;;;;;;;;;;;23.60;92.30;;;;;;4840297;29;20353;-91
2023/06/30 14:38:49;;;;;;;;;;;23.40;92.20;;;;;;4827527;29;19931;-90
2023/06/30 14:41:27;;;;;;;;;;;23.80;92.80;;;;;;4827834;29;19924;-90
2023/06/30 14:43:53;;;;;;;;;;;23.90;91.80;;;;;;4828328;29;19975;-90
2023/06/30 14:46:18;;;;;;;;;;;24.00;91.40;;;;;;4838275;29;20002;-90
2023/06/30 14:48:44;;;;;;;;;;;23.80;90.60;;;;;;4827415;29;20373;-90
2023/06/30 14:51:10;;;;;;;;;;;23.70;91.50;;;;;;4827200;29;19924;-91
2023/06/30 14:53:39;;;;;;;;;;;23.80;91.90;;;;;;4834883;29;20027;-91
2023/06/30 14:56:07;;;;;;;;;;;23.80;92.50;;;;;;4827555;29;20347;-90
2023/06/30 14:58:33;;;;;;;;;;;23.90;92.80;;;;;;4836582;29;20391;-90
2023/06/30 15:00:58;;;;;;;;;;;23.90;91.70;;;;;;4826678;29;19924;-90
2023/06/30 15:03:31;;;;;;;;;;;23.80;91.20;;;;;;4827152;29;20400;-90
2023/06/30 15:05:56;;;;;;;;;;;23.60;90.70;;;;;;4815514;29;19959;-90
2023/06/30 15:08:25;;;;;;;;;;;23.70;92.40;;;;;;4826611;29;19924;-90
2023/06/30 15:10:51;;;;;;;;;;;23.60;91.80;;;;;;4827217;29;20006;-90
2023/06/30 15:13:24;;;;;;;;;;;23.50;91.80;;;;;;4836370;29;20448;-91
2023/06/30 15:15:52;;;;;;;;;;;23.30;90.90;;;;;;4826835;29;19981;-90
2023/06/30 15:18:21;;;;;;;;;;;23.30;91.90;;;;;;4827212;29;19981;-90
2023/06/30 15:21:12;;;;;;;;;;;23.10;92.50;;;;;;4834289;29;19927;-90
2023/06/30 15:23:37;;;;;;;;;;;23.00;92.70;;;;;;4839574;29;19931;-90
2023/06/30 15:26:03;;;;;;;;;;;22.90;92.70;;;;;;4827043;29;19924;-91
2023/06/30 15:28:29;;;;;;;;;;;22.70;93.60;;;;;;4827428;29;20453;-91
2023/06/30 15:30:54;;;;;;;;;;;22.60;93.20;;;;;;4838422;29;19939;-89
2023/06/30 15:33:27;;;;;;;;;;;22.60;94.10;;;;;;4838974;29;19928;-89
2023/06/30 15:35:53;;;;;;;;;;;22.60;94.80;;;;;;4821185;29;19932;-90
2023/06/30 15:38:18;;;;;;;;;;;22.70;94.10;;;;;;4831054;29;19923;-91
2023/06/30 15:40:56;;;;;;;;;;;22.80;94.50;;;;;;4829665;29;19931;-91
2023/06/30 15:43:22;;;;;;;;;;;23.00;94.30;;;;;;4814881;29;20033;-91
2023/06/30 15:45:54;;;;;;;;;;;23.20;94.00;;;;;;4823336;29;20369;-90
2023/06/30 15:48:25;;;;;;;;;;;23.30;94.30;;;;;;4814059;29;19973;-90
2023/06/30 15:50:54;;;;;;;;;;;23.70;94.50;;;;;;4825535;29;19927;-90
2023/06/30 15:53:20;;;;;;;;;;;24.00;94.30;;;;;;4822698;29;20268;-89
2023/06/30 15:55:46;;;;;;;;;;;24.00;92.10;;;;;;4835313;29;19931;-90
2023/06/30 15:58:12;;;;;;;;;;;24.00;93.10;;;;;;4823485;24;19924;-96
2023/06/30 16:00:46;;;;;;;;;;;23.80;93.40;;;;;;4825408;29;19924;-96
2023/06/30 16:04:09;;;;;;;;;;;23.50;92.90;;;;;;4835352;29;19935;-96
2023/06/30 16:06:37;;;;;;;;;;;23.30;94.40;;;;;;4822203;29;19934;-96
2023/06/30 16:09:15;;;;;;;;;;;;;;;;;;;;;
2023/06/30 16:11:45;;;;;;;;;;;22.80;94.60;;;;;;4834885;29;19928;-96
2023/06/30 16:14:10;;;;;;;;;;;22.70;95.20;;;;;;4825259;29;19924;-95
2023/06/30 16:16:36;;;;;;;;;;;22.40;94.80;;;;;;4825988;29;20274;-96
2023/06/30 16:19:05;;;;;;;;;;;22.40;96.00;;;;;;4838268;29;20369;-96
2023/06/30 16:21:38;;;;;;;;;;;22.10;96.30;;;;;;4824060;29;20436;-95
2023/06/30 16:24:17;;;;;;;;;;;;;;;;;;;;;
2023/06/30 16:26:49;;;;;;;;;;;21.90;97.10;;;;;;4832021;29;19928;-95
2023/06/30 16:29:21;;;;;;;;;;;21.80;97.60;;;;;;4836127;29;20339;-95
2023/06/30 16:31:46;;;;;;;;;;;21.60;98.30;;;;;;4819144;29;19927;-95
2023/06/30 16:34:18;;;;;;;;;;;21.50;98.70;;;;;;4830025;29;20391;-95
2023/06/30 16:36:46;;;;;;;;;;;21.70;98.90;;;;;;4824051;29;19928;-95
2023/06/30 16:39:15;;;;;;;;;;;21.50;99.40;;;;;;4829793;29;19946;-95
2023/06/30 16:42:29;;;;;;;;;;;21.50;99.90;;;;;;4824124;29;19932;-95
2023/06/30 16:45:01;;;;;;;;;;;21.60;99.90;;;;;;4824414;29;20090;-96
2023/06/30 16:47:32;;;;;;;;;;;21.90;99.90;;;;;;4824193;29;19968;-96
2023/06/30 16:50:03;;;;;;;;;;;21.60;99.90;;;;;;4833166;29;19932;-96
2023/06/30 16:52:44;;;;;;;;;;;21.60;99.90;;;;;;4828816;29;19950;-96
2023/06/30 16:55:15;;;;;;;;;;;21.50;99.90;;;;;;4814835;29;19928;-95
2023/06/30 16:57:42;;;;;;;;;;;21.50;99.90;;;;;;4820522;29;20344;-96
2023/06/30 17:00:13;;;;;;;;;;;21.50;99.90;;;;;;4817897;29;19971;-95
2023/06/30 17:02:54;;;;;;;;;;;21.40;99.90;;;;;;4851974;29;19923;-96
2023/06/30 17:05:25;;;;;;;;;;;21.30;99.90;;;;;;4834784;29;19932;-96
2023/06/30 17:07:59;;;;;;;;;;;21.30;99.90;;;;;;4832688;29;19947;-95
2023/06/30 17:14:24;;;;;;;;;;;21.20;99.90;;;;;;4807249;29;19932;-95
2023/06/30 17:16:28;;;;;;;;;;;21.10;99.90;;;;;;4826298;29;20417;-96
2023/06/30 17:18:59;;;;;;;;;;;21.00;99.90;;;;;;4824364;29;19933;-96
2023/06/30 17:21:25;;;;;;;;;;;21.00;99.90;;;;;;4819516;29;19932;-96
2023/06/30 17:23:51;;;;;;;;;;;20.90;99.90;;;;;;4815426;29;20389;-96
2023/06/30 17:26:19;;;;;;;;;;;20.90;99.90;;;;;;4828487;29;19936;-95
2023/06/30 17:28:50;;;;;;;;;;;20.90;99.90;;;;;;4821980;29;19992;-94
2023/06/30 17:31:19;;;;;;;;;;;20.90;99.90;;;;;;4824669;29;19957;-96
2023/06/30 17:37:01;;;;;;;;;;;21.00;99.90;;;;;;4806421;29;19951;-96
2023/06/30 17:39:29;;;;;;;;;;;21.10;99.90;;;;;;4822167;29;19976;-96
2023/06/30 17:41:57;;;;;;;;;;;21.10;99.90;;;;;;4826231;29;20043;-96
2023/06/30 17:44:31;;;;;;;;;;;21.10;99.90;;;;;;4827786;29;20515;-96
2023/06/30 17:47:00;;;;;;;;;;;21.10;99.90;;;;;;4821641;29;19928;-96
2023/06/30 17:49:29;;;;;;;;;;;21.10;99.90;;;;;;4831438;29;19927;-96
2023/06/30 17:52:03;;;;;;;;;;;20.90;99.90;;;;;;4823865;29;19939;-96
2023/06/30 17:55:03;;;;;;;;;;;21.10;99.90;;;;;;4823146;29;19955;-96
2023/06/30 17:57:55;;;;;;;;;;;;;;;;;;;;;
2023/06/30 18:00:39;;;;;;;;;;;21.20;99.90;;;;;;4840321;29;20030;-96
2023/06/30 18:03:31;;;;;;;;;;;21.30;99.90;;;;;;4827135;29;19970;-96
2023/06/30 18:06:16;;;;;;;;;;;;;;;;;;;;;
2023/06/30 18:08:47;;;;;;;;;;;21.40;99.90;;;;;;4850457;29;19928;-96
2023/06/30 18:11:18;;;;;;;;;;;21.40;99.90;;;;;;4841367;29;19923;-96
2023/06/30 18:14:05;;;;;;;;;;;;;;;;;;;;;
2023/06/30 18:16:37;;;;;;;;;;;21.20;99.90;;;;;;4846264;29;19928;-96
2023/06/30 18:19:11;;;;;;;;;;;21.10;99.90;;;;;;4842850;29;20368;-96
2023/06/30 18:21:39;;;;;;;;;;;21.00;99.90;;;;;;4824083;29;20010;-96
2023/06/30 18:24:06;;;;;;;;;;;20.90;99.90;;;;;;4823907;29;19990;-95
2023/06/30 18:26:37;;;;;;;;;;;20.80;99.90;;;;;;4830117;29;20383;-96
2023/06/30 18:29:10;;;;;;;;;;;20.70;99.90;;;;;;4830338;29;19927;-96
2023/06/30 18:31:37;;;;;;;;;;;20.60;99.90;;;;;;4841450;29;19927;-96
2023/06/30 18:34:09;;;;;;;;;;;20.50;99.90;;;;;;4818364;29;19996;-96
2023/06/30 18:36:47;;;;;;;;;;;20.50;99.90;;;;;;4826436;29;20017;-96
2023/06/30 18:39:13;;;;;;;;;;;20.40;99.90;;;;;;4823291;29;20290;-96
2023/06/30 18:41:47;;;;;;;;;;;20.30;99.90;;;;;;4832777;29;20042;-96
2023/06/30 18:44:13;;;;;;;;;;;20.20;99.90;;;;;;4831969;29;19970;-96
2023/06/30 18:46:39;;;;;;;;;;;20.20;99.90;;;;;;4836492;29;19993;-96
2023/06/30 18:49:07;;;;;;;;;;;20.20;99.90;;;;;;4825010;29;19940;-96
2023/06/30 18:51:36;;;;;;;;;;;20.10;99.90;;;;;;4834200;29;19928;-96
2023/06/30 18:54:08;;;;;;;;;;;20.10;99.90;;;;;;4830906;29;19988;-96
2023/06/30 18:56:50;;;;;;;;;;;20.10;99.90;;;;;;4850170;29;19935;-96
2023/06/30 18:59:25;;;;;;;;;;;20.00;99.90;;;;;;4841658;29;19934;-95
2023/06/30 19:02:07;;;;;;;;;;;19.90;99.90;;;;;;4834037;29;20148;-96
2023/06/30 19:05:37;;;;;;;;;;;19.90;99.90;;;;;;4847092;29;20415;-96
2023/06/30 19:07:54;;;;;;;;;;;19.80;99.90;;;;;;4847870;29;20285;-96
2023/06/30 19:10:27;;;;;;;;;;;19.70;99.90;;;;;;4821616;29;19978;-96
2023/06/30 19:13:16;;;;;;;;;;;19.50;99.90;;;;;;4814649;29;20453;-96
2023/06/30 19:15:45;;;;;;;;;;;19.70;99.90;;;;;;4846819;23;20543;-88
2023/06/30 19:18:19;;;;;;;;;;;19.50;99.90;;;;;;4839000;29;19928;-88
2023/06/30 19:20:54;;;;;;;;;;;19.50;99.90;;;;;;4844066;29;19935;-89
2023/06/30 19:23:29;;;;;;;;;;;19.50;99.90;;;;;;4839134;29;19928;-89
2023/06/30 19:25:55;;;;;;;;;;;19.40;99.90;;;;;;4823415;29;19928;-88
2023/06/30 19:28:20;;;;;;;;;;;19.40;99.90;;;;;;4822849;29;19928;-88
2023/06/30 19:30:50;;;;;;;;;;;19.40;99.90;;;;;;4823405;29;20389;-89
2023/06/30 19:33:29;;;;;;;;;;;19.30;99.90;;;;;;4822945;29;19928;-89
2023/06/30 19:36:01;;;;;;;;;;;19.30;99.90;;;;;;4823346;29;19928;-90
2023/06/30 19:38:27;;;;;;;;;;;19.30;99.90;;;;;;4823884;29;19987;-89
2023/06/30 19:40:54;;;;;;;;;;;19.20;99.90;;;;;;4821991;29;20384;-89
2023/06/30 19:43:19;;;;;;;;;;;19.20;99.90;;;;;;4825385;29;20063;-91
2023/06/30 19:45:45;;;;;;;;;;;19.10;99.90;;;;;;4823388;29;20433;-89
2023/06/30 19:48:11;;;;;;;;;;;19.10;99.90;;;;;;4823512;29;19954;-89
2023/06/30 19:50:43;;;;;;;;;;;19.00;99.90;;;;;;4823965;29;19951;-91
2023/06/30 19:53:09;;;;;;;;;;;19.00;99.90;;;;;;4823129;29;19934;-90
2023/06/30 19:55:41;;;;;;;;;;;18.90;99.90;;;;;;4823067;29;20023;-90
2023/06/30 19:58:10;;;;;;;;;;;19.00;99.90;;;;;;4825531;29;19928;-90
2023/06/30 20:00:41;;;;;;;;;;;18.90;99.90;;;;;;4838783;29;19931;-90
2023/06/30 20:03:07;;;;;;;;;;;18.90;99.90;;;;;;4824171;29;19928;-87
2023/06/30 20:05:33;;;;;;;;;;;18.80;99.90;;;;;;4838884;29;19931;-89
2023/06/30 20:07:59;;;;;;;;;;;18.80;99.90;;;;;;4823814;29;19987;-92
2023/06/30 20:10:24;;;;;;;;;;;18.70;99.90;;;;;;4839352;29;19935;-93
2023/06/30 20:12:57;;;;;;;;;;;18.70;99.90;;;;;;4824558;29;20047;-92
2023/06/30 20:15:47;;;;;;;;;;;18.80;99.90;;;;;;4826711;29;19924;-92
2023/06/30 20:18:17;;;;;;;;;;;18.60;99.90;;;;;;4823725;29;20083;-91
2023/06/30 20:20:43;;;;;;;;;;;18.60;99.90;;;;;;4822987;29;19928;-92
2023/06/30 20:23:21;;;;;;;;;;;18.60;99.90;;;;;;4824642;29;19924;-93
2023/06/30 20:26:02;;;;;;;;;;;18.50;99.90;;;;;;4826412;29;19991;-92
2023/06/30 20:28:28;;;;;;;;;;;18.50;99.90;;;;;;4827440;29;20313;-92
2023/06/30 20:30:57;;;;;;;;;;;18.40;99.90;;;;;;4827167;29;19935;-92
2023/06/30 20:33:23;;;;;;;;;;;18.40;99.90;;;;;;4826974;29;19924;-93
2023/06/30 20:35:52;;;;;;;;;;;18.40;99.90;;;;;;4826844;29;19934;-92
2023/06/30 20:38:19;;;;;;;;;;;18.40;99.90;;;;;;4827118;29;19931;-92
2023/06/30 20:40:45;;;;;;;;;;;18.20;99.90;;;;;;4827030;29;19924;-90
2023/06/30 20:43:10;;;;;;;;;;;18.30;99.90;;;;;;4842256;29;19928;-91
2023/06/30 20:45:36;;;;;;;;;;;18.20;99.90;;;;;;4826274;29;20279;-91
2023/06/30 20:48:08;;;;;;;;;;;18.20;99.90;;;;;;4829504;29;20038;-90
2023/06/30 20:50:37;;;;;;;;;;;18.20;99.90;;;;;;4830771;29;19924;-91
2023/06/30 20:53:03;;;;;;;;;;;18.30;99.90;;;;;;4841386;29;19924;-90
2023/06/30 20:55:28;;;;;;;;;;;18.20;99.90;;;;;;4826339;29;19932;-92
2023/06/30 20:57:57;;;;;;;;;;;18.10;99.90;;;;;;4829703;29;19955;-96
2023/06/30 21:17:27;;;;;;;;;;;18.00;99.90;;;;;;4858747;29;19923;-92
2023/06/30 21:19:59;;;;;;;;;;;17.90;99.90;;;;;;4839130;29;19924;-95
2023/06/30 21:22:25;;;;;;;;;;;17.80;99.90;;;;;;4820797;29;20265;-90
2023/06/30 21:25:00;;;;;;;;;;;17.90;99.90;;;;;;4827485;29;20466;-91
2023/06/30 21:27:35;;;;;;;;;;;17.90;99.90;;;;;;4821376;29;20074;-96
2023/06/30 21:30:01;;;;;;;;;;;17.80;99.90;;;;;;4841020;29;19927;-93
2023/06/30 21:32:26;;;;;;;;;;;17.80;99.90;;;;;;4828296;29;19931;-92
2023/06/30 21:34:52;;;;;;;;;;;17.80;99.90;;;;;;4839548;29;19932;-93
2023/06/30 21:37:18;;;;;;;;;;;17.80;99.90;;;;;;4855035;29;19978;-93
2023/06/30 21:39:43;;;;;;;;;;;17.70;99.90;;;;;;4849802;29;19979;-93
2023/06/30 21:42:09;;;;;;;;;;;17.70;99.90;;;;;;4847335;29;19934;-94
2023/06/30 21:44:35;;;;;;;;;;;17.70;99.90;;;;;;4834394;29;19999;-93
2023/06/30 21:47:09;;;;;;;;;;;17.70;99.90;;;;;;4836018;29;20027;-92
2023/06/30 21:49:35;;;;;;;;;;;17.70;99.90;;;;;;4828583;29;20274;-93
2023/06/30 21:52:04;;;;;;;;;;;17.60;99.90;;;;;;4844360;29;19934;-93
2023/06/30 21:54:30;;;;;;;;;;;17.60;99.90;;;;;;4848232;29;19923;-92
2023/06/30 21:56:59;;;;;;;;;;;17.60;99.90;;;;;;4862019;29;20018;-93
2023/06/30 21:59:33;;;;;;;;;;;17.70;99.90;;;;;;4843946;29;20415;-92
2023/06/30 22:01:59;;;;;;;;;;;17.60;99.90;;;;;;4839942;29;19927;-94
2023/06/30 22:04:26;;;;;;;;;;;17.60;99.90;;;;;;4843325;29;20075;-94
2023/06/30 22:06:51;;;;;;;;;;;17.60;99.90;;;;;;4843307;29;19928;-93
2023/06/30 22:09:17;;;;;;;;;;;17.60;99.90;;;;;;4833999;29;19939;-94
2023/06/30 22:11:43;;;;;;;;;;;17.60;99.90;;;;;;4845359;29;19967;-90
2023/06/30 22:14:09;;;;;;;;;;;17.60;99.90;;;;;;4845001;29;19928;-92
2023/06/30 22:16:49;;;;;;;;;;;17.50;99.90;;;;;;4833245;29;19928;-92
2023/06/30 22:19:14;;;;;;;;;;;17.60;99.90;;;;;;4836223;29;19924;-90
2023/06/30 22:21:46;;;;;;;;;;;17.60;99.90;;;;;;4853206;29;19924;-92
2023/06/30 22:24:12;;;;;;;;;;;17.40;99.90;;;;;;4828914;29;20432;-91
2023/06/30 22:26:41;;;;;;;;;;;17.60;99.90;;;;;;4828820;29;20014;-91
2023/06/30 22:29:18;;;;;;;;;;;17.50;99.90;;;;;;4843163;29;20460;-91
2023/06/30 22:31:47;;;;;;;;;;;17.50;99.90;;;;;;4832111;29;19923;-92
2023/06/30 22:34:19;;;;;;;;;;;17.50;99.90;;;;;;4833831;29;19935;-91
2023/06/30 22:36:45;;;;;;;;;;;17.50;99.90;;;;;;4847738;29;19923;-92
2023/06/30 22:39:10;;;;;;;;;;;17.50;99.90;;;;;;4833037;29;19920;-92
2023/06/30 22:41:36;;;;;;;;;;;17.50;99.90;;;;;;4838885;29;19988;-91
2023/06/30 22:44:02;;;;;;;;;;;17.50;99.90;;;;;;4827002;29;21450;-90
2023/06/30 22:46:27;;;;;;;;;;;17.50;99.90;;;;;;4827673;29;19924;-91
2023/06/30 22:48:53;;;;;;;;;;;17.50;99.90;;;;;;4827507;29;19935;-91
2023/06/30 22:51:22;;;;;;;;;;;17.40;99.90;;;;;;4826849;29;20358;-91
2023/06/30 22:53:53;;;;;;;;;;;17.40;99.90;;;;;;4827729;29;19980;-91
2023/06/30 22:56:19;;;;;;;;;;;17.40;99.90;;;;;;4843054;29;19924;-91
2023/06/30 22:58:57;;;;;;;;;;;17.50;99.90;;;;;;4828230;29;20035;-91
2023/06/30 23:01:22;;;;;;;;;;;17.40;99.90;;;;;;4837288;29;19975;-90
2023/06/30 23:03:48;;;;;;;;;;;17.40;99.90;;;;;;4830523;29;20487;-90
2023/06/30 23:06:14;;;;;;;;;;;17.40;99.90;;;;;;4836487;29;19927;-90
2023/06/30 23:08:39;;;;;;;;;;;17.40;99.90;;;;;;4854705;29;19962;-90
2023/06/30 23:11:05;;;;;;;;;;;17.40;99.90;;;;;;4835301;29;19931;-90
2023/06/30 23:13:30;;;;;;;;;;;17.40;99.90;;;;;;4848248;29;19939;-89
2023/06/30 23:16:00;;;;;;;;;;;17.40;99.90;;;;;;4844672;29;19946;-90
2023/06/30 23:18:26;;;;;;;;;;;17.40;99.90;;;;;;4830389;29;19955;-91
2023/06/30 23:20:57;;;;;;;;;;;17.40;99.90;;;;;;4827891;29;20035;-90
2023/06/30 23:23:27;;;;;;;;;;;17.40;99.90;;;;;;4838524;29;19928;-90
2023/06/30 23:25:56;;;;;;;;;;;17.50;99.90;;;;;;4835848;29;19975;-90
2023/06/30 23:28:21;;;;;;;;;;;17.30;99.90;;;;;;4860460;29;20388;-91
2023/06/30 23:30:56;;;;;;;;;;;17.40;99.90;;;;;;4834363;29;19931;-90